sensor_id;sensor_type;location;lat;lon;timestamp;temperature;humidity
14172;DHT22;7165;52.388;4.928;2024-03-23T00:55:16;7.40;99.90
14172;DHT22;7165;52.388;4.928;2024-03-23T00:57:43;7.40;99.90
14172;DHT22;7165;52.388;4.928;2024-03-23T01:00:09;7.40;99.90
14172;DHT22;7165;52.388;4.928;2024-03-23T01:02:36;7.30;99.90
14172;DHT22;7165;52.388;4.928;2024-03-23T01:05:02;7.30;99.90
14172;DHT22;7165;52.388;4.928;2024-03-23T01:07:29;7.40;99.90
14172;DHT22;7165;52.388;4.928;2024-03-23T01:09:54;7.40;99.90
14172;DHT22;7165;52.388;4.928;2024-03-23T01:12:22;7.30;99.90
14172;DHT22;7165;52.388;4.928;2024-03-23T01:14:48;7.20;99.90
14172;DHT22;7165;52.388;4.928;2024-03-23T01:17:15;7.20;99.90
14172;DHT22;7165;52.388;4.928;2024-03-23T01:19:40;7.10;99.90
14172;DHT22;7165;52.388;4.928;2024-03-23T01:22:07;7.10;99.90
14172;DHT22;7165;52.388;4.928;2024-03-23T01:24:35;7.10;99.90
14172;DHT22;7165;52.388;4.928;2024-03-23T01:27:01;7.10;99.90
14172;DHT22;7165;52.388;4.928;2024-03-23T01:29:29;7.20;99.90
14172;DHT22;7165;52.388;4.928;2024-03-23T01:31:55;7.10;99.90
14172;DHT22;7165;52.388;4.928;2024-03-23T01:34:21;7.10;99.90
14172;DHT22;7165;52.388;4.928;2024-03-23T01:36:50;7.20;99.90
14172;DHT22;7165;52.388;4.928;2024-03-23T01:39:15;7.10;99.90
14172;DHT22;7165;52.388;4.928;2024-03-23T01:41:42;7.10;99.90
14172;DHT22;7165;52.388;4.928;2024-03-23T01:44:08;7.10;99.90
14172;DHT22;7165;52.388;4.928;2024-03-23T01:46:37;7.10;99.90
14172;DHT22;7165;52.388;4.928;2024-03-23T01:49:04;7.10;99.90
14172;DHT22;7165;52.388;4.928;2024-03-23T01:51:30;7.00;99.90
14172;DHT22;7165;52.388;4.928;2024-03-23T01:53:57;6.90;99.90
14172;DHT22;7165;52.388;4.928;2024-03-23T01:56:26;6.90;99.90
14172;DHT22;7165;52.388;4.928;2024-03-23T01:58:52;6.90;99.90
14172;DHT22;7165;52.388;4.928;2024-03-23T02:01:18;6.80;99.90
14172;DHT22;7165;52.388;4.928;2024-03-23T02:03:46;6.70;99.90
14172;DHT22;7165;52.388;4.928;2024-03-23T02:06:12;6.70;99.90
14172;DHT22;7165;52.388;4.928;2024-03-23T02:08:38;6.70;99.90
14172;DHT22;7165;52.388;4.928;2024-03-23T02:11:05;6.80;99.90
14172;DHT22;7165;52.388;4.928;2024-03-23T02:13:31;6.80;99.90
14172;DHT22;7165;52.388;4.928;2024-03-23T02:15:57;6.80;99.90
14172;DHT22;7165;52.388;4.928;2024-03-23T02:18:23;6.70;99.90
14172;DHT22;7165;52.388;4.928;2024-03-23T02:20:51;6.70;99.90
14172;DHT22;7165;52.388;4.928;2024-03-23T02:23:18;6.80;99.90
14172;DHT22;7165;52.388;4.928;2024-03-23T02:25:45;6.90;99.90
14172;DHT22;7165;52.388;4.928;2024-03-23T02:28:11;7.00;99.90
14172;DHT22;7165;52.388;4.928;2024-03-23T02:30:38;7.10;99.90
14172;DHT22;7165;52.388;4.928;2024-03-23T02:33:04;7.00;99.90
14172;DHT22;7165;52.388;4.928;2024-03-23T02:35:31;7.10;99.90
14172;DHT22;7165;52.388;4.928;2024-03-23T02:37:58;7.10;99.90
14172;DHT22;7165;52.388;4.928;2024-03-23T02:40:26;7.10;99.90
14172;DHT22;7165;52.388;4.928;2024-03-23T02:42:52;7.10;99.90
14172;DHT22;7165;52.388;4.928;2024-03-23T02:45:19;7.10;99.90
14172;DHT22;7165;52.388;4.928;2024-03-23T02:47:44;7.10;99.90
14172;DHT22;7165;52.388;4.928;2024-03-23T02:50:11;7.10;99.90
14172;DHT22;7165;52.388;4.928;2024-03-23T02:52:37;7.10;99.90
14172;DHT22;7165;52.388;4.928;2024-03-23T02:55:04;7.10;99.90
14172;DHT22;7165;52.388;4.928;2024-03-23T02:57:32;7.10;99.90
14172;DHT22;7165;52.388;4.928;2024-03-23T02:59:58;7.10;99.90
14172;DHT22;7165;52.388;4.928;2024-03-23T03:02:24;7.10;99.90
14172;DHT22;7165;52.388;4.928;2024-03-23T03:04:51;7.10;99.90
14172;DHT22;7165;52.388;4.928;2024-03-23T03:07:16;7.10;99.90
14172;DHT22;7165;52.388;4.928;2024-03-23T03:09:43;7.10;99.90
14172;DHT22;7165;52.388;4.928;2024-03-23T03:12:09;7.10;99.90
14172;DHT22;7165;52.388;4.928;2024-03-23T03:14:37;7.20;99.90
14172;DHT22;7165;52.388;4.928;2024-03-23T03:17:03;7.30;99.90
14172;DHT22;7165;52.388;4.928;2024-03-23T03:19:30;7.30;99.90
14172;DHT22;7165;52.388;4.928;2024-03-23T03:21:55;7.30;99.90
14172;DHT22;7165;52.388;4.928;2024-03-23T03:24:22;7.30;99.90
14172;DHT22;7165;52.388;4.928;2024-03-23T03:26:48;7.30;99.90
14172;DHT22;7165;52.388;4.928;2024-03-23T03:29:15;7.30;99.90
14172;DHT22;7165;52.388;4.928;2024-03-23T03:31:42;7.30;99.90
14172;DHT22;7165;52.388;4.928;2024-03-23T03:34:09;7.30;99.90
14172;DHT22;7165;52.388;4.928;2024-03-23T03:36:34;7.30;99.90
14172;DHT22;7165;52.388;4.928;2024-03-23T03:39:01;7.20;99.90
14172;DHT22;7165;52.388;4.928;2024-03-23T03:41:28;7.20;99.90
14172;DHT22;7165;52.388;4.928;2024-03-23T03:43:55;7.20;99.90
14172;DHT22;7165;52.388;4.928;2024-03-23T03:46:20;7.10;99.90
14172;DHT22;7165;52.388;4.928;2024-03-23T03:48:49;7.10;99.90
14172;DHT22;7165;52.388;4.928;2024-03-23T03:51:15;7.10;99.90
14172;DHT22;7165;52.388;4.928;2024-03-23T03:53:41;7.10;99.90
14172;DHT22;7165;52.388;4.928;2024-03-23T03:56:07;7.10;99.90
14172;DHT22;7165;52.388;4.928;2024-03-23T03:58:34;7.20;99.90
14172;DHT22;7165;52.388;4.928;2024-03-23T04:00:59;7.20;99.90
14172;DHT22;7165;52.388;4.928;2024-03-23T04:03:26;7.20;99.90
14172;DHT22;7165;52.388;4.928;2024-03-23T04:05:53;7.10;99.90
14172;DHT22;7165;52.388;4.928;2024-03-23T04:08:20;7.10;99.90
14172;DHT22;7165;52.388;4.928;2024-03-23T04:10:46;7.00;99.90
14172;DHT22;7165;52.388;4.928;2024-03-23T04:13:13;7.10;99.90
14172;DHT22;7165;52.388;4.928;2024-03-23T04:15:39;7.10;99.90
14172;DHT22;7165;52.388;4.928;2024-03-23T04:18:06;7.10;99.90
14172;DHT22;7165;52.388;4.928;2024-03-23T04:20:32;7.20;99.90
14172;DHT22;7165;52.388;4.928;2024-03-23T04:23:00;7.20;99.90
14172;DHT22;7165;52.388;4.928;2024-03-23T04:25:26;7.20;99.90
14172;DHT22;7165;52.388;4.928;2024-03-23T04:27:53;7.20;99.90
14172;DHT22;7165;52.388;4.928;2024-03-23T04:30:20;7.20;99.90
14172;DHT22;7165;52.388;4.928;2024-03-23T04:32:47;7.20;99.90
14172;DHT22;7165;52.388;4.928;2024-03-23T04:35:13;7.10;99.90
14172;DHT22;7165;52.388;4.928;2024-03-23T04:37:39;7.10;99.90
14172;DHT22;7165;52.388;4.928;2024-03-23T04:40:08;7.10;99.90
14172;DHT22;7165;52.388;4.928;2024-03-23T04:42:34;7.10;99.90
14172;DHT22;7165;52.388;4.928;2024-03-23T04:45:01;7.10;99.90
14172;DHT22;7165;52.388;4.928;2024-03-23T04:47:28;7.10;99.90
14172;DHT22;7165;52.388;4.928;2024-03-23T04:49:54;7.10;99.90
14172;DHT22;7165;52.388;4.928;2024-03-23T04:52:20;7.10;99.90
14172;DHT22;7165;52.388;4.928;2024-03-23T04:54:46;7.10;99.90
14172;DHT22;7165;52.388;4.928;2024-03-23T04:57:14;7.10;99.90
14172;DHT22;7165;52.388;4.928;2024-03-23T04:59:42;7.20;99.90
14172;DHT22;7165;52.388;4.928;2024-03-23T05:02:07;7.20;99.90
14172;DHT22;7165;52.388;4.928;2024-03-23T05:04:35;7.20;99.90
14172;DHT22;7165;52.388;4.928;2024-03-23T05:07:00;7.20;99.90
14172;DHT22;7165;52.388;4.928;2024-03-23T05:09:27;7.30;99.90
14172;DHT22;7165;52.388;4.928;2024-03-23T05:11:55;7.30;99.90
14172;DHT22;7165;52.388;4.928;2024-03-23T05:14:23;7.30;99.90
14172;DHT22;7165;52.388;4.928;2024-03-23T05:16:49;7.30;99.90
14172;DHT22;7165;52.388;4.928;2024-03-23T05:19:15;7.30;99.90
14172;DHT22;7165;52.388;4.928;2024-03-23T05:21:41;7.30;99.90
14172;DHT22;7165;52.388;4.928;2024-03-23T05:24:08;7.30;99.90
14172;DHT22;7165;52.388;4.928;2024-03-23T05:26:34;7.30;99.90
14172;DHT22;7165;52.388;4.928;2024-03-23T05:29:01;7.30;99.90
14172;DHT22;7165;52.388;4.928;2024-03-23T05:31:28;7.30;99.90
14172;DHT22;7165;52.388;4.928;2024-03-23T05:33:55;7.30;99.90
14172;DHT22;7165;52.388;4.928;2024-03-23T05:36:21;7.30;99.90
14172;DHT22;7165;52.388;4.928;2024-03-23T05:38:49;7.30;99.90
14172;DHT22;7165;52.388;4.928;2024-03-23T05:41:14;7.30;99.90
14172;DHT22;7165;52.388;4.928;2024-03-23T05:43:41;7.30;99.90
14172;DHT22;7165;52.388;4.928;2024-03-23T05:46:07;7.30;99.90
14172;DHT22;7165;52.388;4.928;2024-03-23T05:48:35;7.30;99.90
14172;DHT22;7165;52.388;4.928;2024-03-23T05:51:01;7.30;99.90
14172;DHT22;7165;52.388;4.928;2024-03-23T05:53:28;7.30;99.90
14172;DHT22;7165;52.388;4.928;2024-03-23T05:56:00;7.30;99.90
14172;DHT22;7165;52.388;4.928;2024-03-23T05:58:29;7.30;99.90
14172;DHT22;7165;52.388;4.928;2024-03-23T06:00:56;7.30;99.90
14172;DHT22;7165;52.388;4.928;2024-03-23T06:03:23;7.30;99.90
14172;DHT22;7165;52.388;4.928;2024-03-23T06:05:50;7.30;99.90
14172;DHT22;7165;52.388;4.928;2024-03-23T06:08:18;7.40;99.90
14172;DHT22;7165;52.388;4.928;2024-03-23T06:10:44;7.40;99.90
14172;DHT22;7165;52.388;4.928;2024-03-23T06:13:11;7.40;99.90
14172;DHT22;7165;52.388;4.928;2024-03-23T06:15:37;7.40;99.90
14172;DHT22;7165;52.388;4.928;2024-03-23T06:18:04;7.40;99.90
14172;DHT22;7165;52.388;4.928;2024-03-23T06:20:30;7.40;99.90
14172;DHT22;7165;52.388;4.928;2024-03-23T06:22:58;7.40;99.90
14172;DHT22;7165;52.388;4.928;2024-03-23T06:25:23;7.40;99.90
14172;DHT22;7165;52.388;4.928;2024-03-23T06:27:50;7.40;99.90
14172;DHT22;7165;52.388;4.928;2024-03-23T06:30:16;7.40;99.90
14172;DHT22;7165;52.388;4.928;2024-03-23T06:32:42;7.50;99.90
14172;DHT22;7165;52.388;4.928;2024-03-23T06:35:08;7.70;99.90
14172;DHT22;7165;52.388;4.928;2024-03-23T06:37:35;7.80;99.90
14172;DHT22;7165;52.388;4.928;2024-03-23T06:40:02;7.90;99.90
14172;DHT22;7165;52.388;4.928;2024-03-23T06:42:30;7.90;99.90
14172;DHT22;7165;52.388;4.928;2024-03-23T06:44:55;7.90;99.90
14172;DHT22;7165;52.388;4.928;2024-03-23T06:47:22;7.90;99.90
14172;DHT22;7165;52.388;4.928;2024-03-23T06:49:48;7.90;99.90
14172;DHT22;7165;52.388;4.928;2024-03-23T06:52:14;7.90;99.90
14172;DHT22;7165;52.388;4.928;2024-03-23T06:54:40;7.90;99.90
14172;DHT22;7165;52.388;4.928;2024-03-23T06:57:08;7.80;99.90
14172;DHT22;7165;52.388;4.928;2024-03-23T06:59:34;7.90;99.90
14172;DHT22;7165;52.388;4.928;2024-03-23T07:02:00;7.90;99.90
14172;DHT22;7165;52.388;4.928;2024-03-23T07:04:26;8.00;99.90
14172;DHT22;7165;52.388;4.928;2024-03-23T07:06:52;8.00;99.90
14172;DHT22;7165;52.388;4.928;2024-03-23T07:09:18;8.00;99.90
14172;DHT22;7165;52.388;4.928;2024-03-23T07:11:48;8.00;99.90
14172;DHT22;7165;52.388;4.928;2024-03-23T07:14:16;7.90;99.90
14172;DHT22;7165;52.388;4.928;2024-03-23T07:16:42;7.90;99.90
14172;DHT22;7165;52.388;4.928;2024-03-23T07:19:08;7.80;99.90
14172;DHT22;7165;52.388;4.928;2024-03-23T07:21:35;7.90;99.90
14172;DHT22;7165;52.388;4.928;2024-03-23T07:24:00;8.00;99.90
14172;DHT22;7165;52.388;4.928;2024-03-23T07:26:27;8.10;99.90
14172;DHT22;7165;52.388;4.928;2024-03-23T07:28:53;8.10;99.90
14172;DHT22;7165;52.388;4.928;2024-03-23T07:31:21;8.10;99.90
14172;DHT22;7165;52.388;4.928;2024-03-23T07:33:48;8.20;99.90
14172;DHT22;7165;52.388;4.928;2024-03-23T07:36:15;8.20;99.90
14172;DHT22;7165;52.388;4.928;2024-03-23T07:38:41;8.20;99.90
14172;DHT22;7165;52.388;4.928;2024-03-23T07:41:08;8.20;99.90
14172;DHT22;7165;52.388;4.928;2024-03-23T07:43:34;8.10;99.90
14172;DHT22;7165;52.388;4.928;2024-03-23T07:46:01;8.10;99.90
14172;DHT22;7165;52.388;4.928;2024-03-23T07:48:30;8.20;99.90
14172;DHT22;7165;52.388;4.928;2024-03-23T07:51:00;8.30;99.90
14172;DHT22;7165;52.388;4.928;2024-03-23T07:53:26;8.40;99.90
14172;DHT22;7165;52.388;4.928;2024-03-23T07:55:54;8.50;99.90
14172;DHT22;7165;52.388;4.928;2024-03-23T07:58:20;8.60;99.90
14172;DHT22;7165;52.388;4.928;2024-03-23T08:00:46;8.70;99.90
14172;DHT22;7165;52.388;4.928;2024-03-23T08:03:12;8.90;99.90
14172;DHT22;7165;52.388;4.928;2024-03-23T08:05:40;9.00;99.90
14172;DHT22;7165;52.388;4.928;2024-03-23T08:08:06;9.00;99.90
14172;DHT22;7165;52.388;4.928;2024-03-23T08:10:32;8.80;99.90
14172;DHT22;7165;52.388;4.928;2024-03-23T08:12:58;8.60;99.90
14172;DHT22;7165;52.388;4.928;2024-03-23T08:15:25;8.50;99.90
14172;DHT22;7165;52.388;4.928;2024-03-23T08:17:50;8.40;99.90
14172;DHT22;7165;52.388;4.928;2024-03-23T08:20:17;8.40;99.90
14172;DHT22;7165;52.388;4.928;2024-03-23T08:22:44;8.40;99.90
14172;DHT22;7165;52.388;4.928;2024-03-23T08:25:11;8.50;99.90
14172;DHT22;7165;52.388;4.928;2024-03-23T08:27:36;8.70;99.90
14172;DHT22;7165;52.388;4.928;2024-03-23T08:30:03;8.80;99.90
14172;DHT22;7165;52.388;4.928;2024-03-23T08:32:29;8.90;99.90
14172;DHT22;7165;52.388;4.928;2024-03-23T08:34:56;9.00;99.90
14172;DHT22;7165;52.388;4.928;2024-03-23T08:37:21;9.00;99.90
14172;DHT22;7165;52.388;4.928;2024-03-23T08:39:52;8.80;99.90
14172;DHT22;7165;52.388;4.928;2024-03-23T08:42:18;8.80;99.90
14172;DHT22;7165;52.388;4.928;2024-03-23T08:44:46;8.80;99.90
14172;DHT22;7165;52.388;4.928;2024-03-23T08:47:14;8.80;99.90
14172;DHT22;7165;52.388;4.928;2024-03-23T08:49:41;8.90;99.90
14172;DHT22;7165;52.388;4.928;2024-03-23T08:52:07;9.10;99.90
14172;DHT22;7165;52.388;4.928;2024-03-23T08:54:33;9.30;99.90
14172;DHT22;7165;52.388;4.928;2024-03-23T08:57:01;9.30;99.90
14172;DHT22;7165;52.388;4.928;2024-03-23T08:59:28;9.30;99.90
14172;DHT22;7165;52.388;4.928;2024-03-23T09:01:53;9.20;99.90
14172;DHT22;7165;52.388;4.928;2024-03-23T09:04:20;9.20;99.90
14172;DHT22;7165;52.388;4.928;2024-03-23T09:06:46;9.00;99.90
14172;DHT22;7165;52.388;4.928;2024-03-23T09:09:13;8.90;99.90
14172;DHT22;7165;52.388;4.928;2024-03-23T09:11:39;8.90;99.90
14172;DHT22;7165;52.388;4.928;2024-03-23T09:14:07;8.80;99.90
14172;DHT22;7165;52.388;4.928;2024-03-23T09:16:34;8.50;99.90
14172;DHT22;7165;52.388;4.928;2024-03-23T09:19:01;8.10;99.90
14172;DHT22;7165;52.388;4.928;2024-03-23T09:21:26;7.80;99.90
14172;DHT22;7165;52.388;4.928;2024-03-23T09:23:53;7.70;99.90
14172;DHT22;7165;52.388;4.928;2024-03-23T09:26:18;7.60;99.90
14172;DHT22;7165;52.388;4.928;2024-03-23T09:28:47;7.50;99.90
14172;DHT22;7165;52.388;4.928;2024-03-23T09:31:14;7.60;99.90
14172;DHT22;7165;52.388;4.928;2024-03-23T09:33:42;8.00;99.90
14172;DHT22;7165;52.388;4.928;2024-03-23T09:36:08;8.30;99.90
14172;DHT22;7165;52.388;4.928;2024-03-23T09:38:34;8.60;99.90
14172;DHT22;7165;52.388;4.928;2024-03-23T09:41:00;8.80;99.90
14172;DHT22;7165;52.388;4.928;2024-03-23T09:43:27;8.70;99.90
14172;DHT22;7165;52.388;4.928;2024-03-23T09:45:52;8.80;99.90
14172;DHT22;7165;52.388;4.928;2024-03-23T09:48:21;8.80;99.90
14172;DHT22;7165;52.388;4.928;2024-03-23T09:50:47;9.00;99.90
14172;DHT22;7165;52.388;4.928;2024-03-23T09:53:14;9.20;99.90
14172;DHT22;7165;52.388;4.928;2024-03-23T09:55:40;9.30;99.90
14172;DHT22;7165;52.388;4.928;2024-03-23T09:58:07;9.20;99.90
14172;DHT22;7165;52.388;4.928;2024-03-23T10:00:33;9.00;99.90
14172;DHT22;7165;52.388;4.928;2024-03-23T10:03:00;9.00;99.90
14172;DHT22;7165;52.388;4.928;2024-03-23T10:05:29;9.00;99.90
14172;DHT22;7165;52.388;4.928;2024-03-23T10:07:56;9.30;99.90
14172;DHT22;7165;52.388;4.928;2024-03-23T10:10:22;9.60;99.90
14172;DHT22;7165;52.388;4.928;2024-03-23T10:12:51;9.70;99.90
14172;DHT22;7165;52.388;4.928;2024-03-23T10:15:18;9.80;99.90
14172;DHT22;7165;52.388;4.928;2024-03-23T10:17:46;10.00;99.90
14172;DHT22;7165;52.388;4.928;2024-03-23T10:20:11;10.20;99.90
14172;DHT22;7165;52.388;4.928;2024-03-23T10:22:39;10.40;99.90
14172;DHT22;7165;52.388;4.928;2024-03-23T10:25:08;10.30;99.90
14172;DHT22;7165;52.388;4.928;2024-03-23T10:27:35;10.10;99.90
14172;DHT22;7165;52.388;4.928;2024-03-23T10:30:07;9.80;99.90
14172;DHT22;7165;52.388;4.928;2024-03-23T10:32:34;9.50;99.90
14172;DHT22;7165;52.388;4.928;2024-03-23T10:35:13;9.10;99.90
14172;DHT22;7165;52.388;4.928;2024-03-23T10:37:41;8.70;99.90
14172;DHT22;7165;52.388;4.928;2024-03-23T10:40:08;8.50;99.90
14172;DHT22;7165;52.388;4.928;2024-03-23T10:42:35;8.50;99.90
14172;DHT22;7165;52.388;4.928;2024-03-23T10:45:01;8.70;99.90
14172;DHT22;7165;52.388;4.928;2024-03-23T10:47:30;9.10;99.90
14172;DHT22;7165;52.388;4.928;2024-03-23T10:49:56;9.30;99.90
14172;DHT22;7165;52.388;4.928;2024-03-23T10:52:22;9.70;99.90
14172;DHT22;7165;52.388;4.928;2024-03-23T10:54:49;10.10;99.90
14172;DHT22;7165;52.388;4.928;2024-03-23T10:57:17;10.40;99.90
14172;DHT22;7165;52.388;4.928;2024-03-23T10:59:43;10.50;99.90
14172;DHT22;7165;52.388;4.928;2024-03-23T11:02:18;10.60;99.90
14172;DHT22;7165;52.388;4.928;2024-03-23T11:04:44;10.50;99.90
14172;DHT22;7165;52.388;4.928;2024-03-23T11:07:29;10.50;99.90
14172;DHT22;7165;52.388;4.928;2024-03-23T11:09:56;10.30;99.90
14172;DHT22;7165;52.388;4.928;2024-03-23T11:12:27;10.10;99.90
14172;DHT22;7165;52.388;4.928;2024-03-23T11:14:53;10.00;99.90
14172;DHT22;7165;52.388;4.928;2024-03-23T11:17:21;10.20;99.90
14172;DHT22;7165;52.388;4.928;2024-03-23T11:19:52;10.50;99.90
14172;DHT22;7165;52.388;4.928;2024-03-23T11:25:01;10.10;99.90
14172;DHT22;7165;52.388;4.928;2024-03-23T11:27:28;9.80;99.90
14172;DHT22;7165;52.388;4.928;2024-03-23T11:29:54;9.90;99.90
14172;DHT22;7165;52.388;4.928;2024-03-23T11:32:21;10.10;99.90
14172;DHT22;7165;52.388;4.928;2024-03-23T11:34:46;10.10;99.90
14172;DHT22;7165;52.388;4.928;2024-03-23T11:37:13;10.00;99.90
14172;DHT22;7165;52.388;4.928;2024-03-23T11:39:39;9.90;99.90
14172;DHT22;7165;52.388;4.928;2024-03-23T11:42:07;10.00;99.90
14172;DHT22;7165;52.388;4.928;2024-03-23T11:44:33;9.90;99.90
14172;DHT22;7165;52.388;4.928;2024-03-23T11:47:07;9.80;99.90
14172;DHT22;7165;52.388;4.928;2024-03-23T11:49:32;9.90;99.90
14172;DHT22;7165;52.388;4.928;2024-03-23T11:52:00;10.10;99.90
14172;DHT22;7165;52.388;4.928;2024-03-23T11:54:26;10.10;99.90
14172;DHT22;7165;52.388;4.928;2024-03-23T11:56:56;9.80;99.90
14172;DHT22;7165;52.388;4.928;2024-03-23T11:59:36;9.40;99.90
14172;DHT22;7165;52.388;4.928;2024-03-23T12:02:06;9.00;99.90
14172;DHT22;7165;52.388;4.928;2024-03-23T12:04:32;8.70;99.90
14172;DHT22;7165;52.388;4.928;2024-03-23T12:07:09;8.60;99.90
14172;DHT22;7165;52.388;4.928;2024-03-23T12:09:35;8.30;99.90
14172;DHT22;7165;52.388;4.928;2024-03-23T12:12:07;8.00;99.90
14172;DHT22;7165;52.388;4.928;2024-03-23T12:14:33;7.80;99.90
14172;DHT22;7165;52.388;4.928;2024-03-23T12:17:08;7.60;99.90
14172;DHT22;7165;52.388;4.928;2024-03-23T12:19:34;7.60;99.90
14172;DHT22;7165;52.388;4.928;2024-03-23T12:22:00;7.50;99.90
14172;DHT22;7165;52.388;4.928;2024-03-23T12:24:27;7.50;99.90
14172;DHT22;7165;52.388;4.928;2024-03-23T12:26:54;7.60;99.90
14172;DHT22;7165;52.388;4.928;2024-03-23T12:29:20;8.10;99.90
14172;DHT22;7165;52.388;4.928;2024-03-23T12:31:47;8.70;99.90
14172;DHT22;7165;52.388;4.928;2024-03-23T12:34:14;9.20;99.90
14172;DHT22;7165;52.388;4.928;2024-03-23T12:36:41;9.70;99.90
14172;DHT22;7165;52.388;4.928;2024-03-23T12:39:06;10.20;99.90
14172;DHT22;7165;52.388;4.928;2024-03-23T12:41:33;10.50;99.90
14172;DHT22;7165;52.388;4.928;2024-03-23T12:43:59;10.60;99.90
14172;DHT22;7165;52.388;4.928;2024-03-23T12:46:25;10.60;99.90
14172;DHT22;7165;52.388;4.928;2024-03-23T12:48:51;10.80;99.90
14172;DHT22;7165;52.388;4.928;2024-03-23T12:51:19;10.90;99.90
14172;DHT22;7165;52.388;4.928;2024-03-23T12:53:44;11.00;99.90
14172;DHT22;7165;52.388;4.928;2024-03-23T12:56:11;10.80;99.90
14172;DHT22;7165;52.388;4.928;2024-03-23T12:58:37;10.50;99.90
14172;DHT22;7165;52.388;4.928;2024-03-23T13:01:04;10.30;99.90
14172;DHT22;7165;52.388;4.928;2024-03-23T13:03:31;10.00;99.90
14172;DHT22;7165;52.388;4.928;2024-03-23T13:05:58;9.80;99.90
14172;DHT22;7165;52.388;4.928;2024-03-23T13:08:25;9.40;99.90
14172;DHT22;7165;52.388;4.928;2024-03-23T13:10:51;9.10;99.90
14172;DHT22;7165;52.388;4.928;2024-03-23T13:13:17;9.00;99.90
14172;DHT22;7165;52.388;4.928;2024-03-23T13:15:49;8.80;99.90
14172;DHT22;7165;52.388;4.928;2024-03-23T13:18:15;8.80;99.90
14172;DHT22;7165;52.388;4.928;2024-03-23T13:20:41;8.70;99.90
14172;DHT22;7165;52.388;4.928;2024-03-23T13:23:07;8.70;99.90
14172;DHT22;7165;52.388;4.928;2024-03-23T13:25:35;8.70;99.90
14172;DHT22;7165;52.388;4.928;2024-03-23T13:28:01;8.70;99.90
14172;DHT22;7165;52.388;4.928;2024-03-23T13:30:28;9.30;99.90
14172;DHT22;7165;52.388;4.928;2024-03-23T13:32:53;9.90;99.90
14172;DHT22;7165;52.388;4.928;2024-03-23T13:35:21;10.40;99.90
14172;DHT22;7165;52.388;4.928;2024-03-23T13:37:46;10.90;99.90
14172;DHT22;7165;52.388;4.928;2024-03-23T13:40:14;11.20;99.90
14172;DHT22;7165;52.388;4.928;2024-03-23T13:42:41;11.20;99.90
14172;DHT22;7165;52.388;4.928;2024-03-23T13:45:08;11.20;99.90
14172;DHT22;7165;52.388;4.928;2024-03-23T13:47:35;10.90;99.90
14172;DHT22;7165;52.388;4.928;2024-03-23T13:50:01;10.70;99.90
14172;DHT22;7165;52.388;4.928;2024-03-23T13:52:27;10.50;99.90
14172;DHT22;7165;52.388;4.928;2024-03-23T13:54:56;10.40;99.90
14172;DHT22;7165;52.388;4.928;2024-03-23T13:57:22;10.30;99.90
14172;DHT22;7165;52.388;4.928;2024-03-23T13:59:52;10.10;99.90
14172;DHT22;7165;52.388;4.928;2024-03-23T14:02:17;10.00;99.90
14172;DHT22;7165;52.388;4.928;2024-03-23T14:04:44;9.90;99.90
14172;DHT22;7165;52.388;4.928;2024-03-23T14:07:10;9.90;99.90
14172;DHT22;7165;52.388;4.928;2024-03-23T14:09:36;10.10;99.90
14172;DHT22;7165;52.388;4.928;2024-03-23T14:12:02;10.20;99.90
14172;DHT22;7165;52.388;4.928;2024-03-23T14:14:29;10.30;99.90
14172;DHT22;7165;52.388;4.928;2024-03-23T14:16:56;10.30;99.90
14172;DHT22;7165;52.388;4.928;2024-03-23T14:19:23;10.30;99.90
14172;DHT22;7165;52.388;4.928;2024-03-23T14:21:48;10.30;99.90
14172;DHT22;7165;52.388;4.928;2024-03-23T14:24:16;10.20;99.90
14172;DHT22;7165;52.388;4.928;2024-03-23T14:26:42;10.40;99.90
14172;DHT22;7165;52.388;4.928;2024-03-23T14:29:08;10.80;99.90
14172;DHT22;7165;52.388;4.928;2024-03-23T14:31:34;11.10;99.90
14172;DHT22;7165;52.388;4.928;2024-03-23T14:34:02;11.20;99.90
14172;DHT22;7165;52.388;4.928;2024-03-23T14:36:28;11.50;99.90
14172;DHT22;7165;52.388;4.928;2024-03-23T14:38:54;11.50;99.90
14172;DHT22;7165;52.388;4.928;2024-03-23T14:41:20;11.50;99.90
14172;DHT22;7165;52.388;4.928;2024-03-23T14:43:47;11.50;99.90
14172;DHT22;7165;52.388;4.928;2024-03-23T14:46:15;11.50;99.90
14172;DHT22;7165;52.388;4.928;2024-03-23T14:48:42;11.50;99.90
14172;DHT22;7165;52.388;4.928;2024-03-23T14:51:10;11.30;99.90
14172;DHT22;7165;52.388;4.928;2024-03-23T14:53:38;11.00;99.90
14172;DHT22;7165;52.388;4.928;2024-03-23T14:56:05;10.70;99.90
14172;DHT22;7165;52.388;4.928;2024-03-23T14:58:32;10.40;99.90
14172;DHT22;7165;52.388;4.928;2024-03-23T15:01:00;10.40;99.90
14172;DHT22;7165;52.388;4.928;2024-03-23T15:03:27;10.40;99.90
14172;DHT22;7165;52.388;4.928;2024-03-23T15:05:53;10.60;99.90
14172;DHT22;7165;52.388;4.928;2024-03-23T15:08:21;10.60;99.90
14172;DHT22;7165;52.388;4.928;2024-03-23T15:10:47;10.50;99.90
14172;DHT22;7165;52.388;4.928;2024-03-23T15:13:14;10.60;99.90
14172;DHT22;7165;52.388;4.928;2024-03-23T15:15:41;10.80;99.90
14172;DHT22;7165;52.388;4.928;2024-03-23T15:18:09;10.90;99.90
14172;DHT22;7165;52.388;4.928;2024-03-23T15:20:35;10.90;99.90
14172;DHT22;7165;52.388;4.928;2024-03-23T15:23:01;10.70;99.90
14172;DHT22;7165;52.388;4.928;2024-03-23T15:25:29;10.50;99.90
14172;DHT22;7165;52.388;4.928;2024-03-23T15:27:56;10.40;99.90
14172;DHT22;7165;52.388;4.928;2024-03-23T15:30:23;11.00;99.90
14172;DHT22;7165;52.388;4.928;2024-03-23T15:32:48;11.40;99.90
14172;DHT22;7165;52.388;4.928;2024-03-23T15:35:15;11.20;99.90
14172;DHT22;7165;52.388;4.928;2024-03-23T15:37:41;11.00;99.90
14172;DHT22;7165;52.388;4.928;2024-03-23T15:40:09;10.90;99.90
14172;DHT22;7165;52.388;4.928;2024-03-23T15:42:36;10.90;99.90
14172;DHT22;7165;52.388;4.928;2024-03-23T15:45:05;11.20;99.90
14172;DHT22;7165;52.388;4.928;2024-03-23T15:47:32;11.90;99.90
14172;DHT22;7165;52.388;4.928;2024-03-23T15:49:59;12.60;99.90
14172;DHT22;7165;52.388;4.928;2024-03-23T15:52:25;12.20;99.90
14172;DHT22;7165;52.388;4.928;2024-03-23T15:54:52;11.70;99.90
14172;DHT22;7165;52.388;4.928;2024-03-23T15:57:18;11.50;99.90
14172;DHT22;7165;52.388;4.928;2024-03-23T15:59:46;11.90;99.90
14172;DHT22;7165;52.388;4.928;2024-03-23T16:02:12;13.20;99.90
14172;DHT22;7165;52.388;4.928;2024-03-23T16:04:38;14.50;99.90
14172;DHT22;7165;52.388;4.928;2024-03-23T16:07:04;14.80;99.90
14172;DHT22;7165;52.388;4.928;2024-03-23T16:09:31;15.00;99.90
14172;DHT22;7165;52.388;4.928;2024-03-23T16:11:56;15.00;99.90
14172;DHT22;7165;52.388;4.928;2024-03-23T16:14:23;14.90;99.90
14172;DHT22;7165;52.388;4.928;2024-03-23T16:16:50;14.60;99.90
14172;DHT22;7165;52.388;4.928;2024-03-23T16:19:16;14.40;99.90
14172;DHT22;7165;52.388;4.928;2024-03-23T16:21:42;13.80;99.90
14172;DHT22;7165;52.388;4.928;2024-03-23T16:24:09;13.30;99.90
14172;DHT22;7165;52.388;4.928;2024-03-23T16:26:34;12.30;99.90
14172;DHT22;7165;52.388;4.928;2024-03-23T16:29:01;11.40;99.90
14172;DHT22;7165;52.388;4.928;2024-03-23T16:31:27;10.70;99.90
14172;DHT22;7165;52.388;4.928;2024-03-23T16:33:55;10.10;99.90
14172;DHT22;7165;52.388;4.928;2024-03-23T16:36:21;9.80;99.90
14172;DHT22;7165;52.388;4.928;2024-03-23T16:38:47;9.50;99.90
14172;DHT22;7165;52.388;4.928;2024-03-23T16:41:13;9.20;99.90
14172;DHT22;7165;52.388;4.928;2024-03-23T16:43:41;9.10;99.90
14172;DHT22;7165;52.388;4.928;2024-03-23T16:46:08;8.90;99.90
14172;DHT22;7165;52.388;4.928;2024-03-23T16:48:36;8.70;99.90
14172;DHT22;7165;52.388;4.928;2024-03-23T16:51:05;8.60;99.90